sensor_id;sensor_type;location;lat;lon;timestamp;P1;durP1;ratioP1;P2;durP2;ratioP2
2023;SDS011;1016;48.770;9.154;2022-07-25T00:01:54;22.10;;;11.60;;
2023;SDS011;1016;48.770;9.154;2022-07-25T00:04:20;20.50;;;11.30;;
2023;SDS011;1016;48.770;9.154;2022-07-25T00:06:45;21.65;;;12.25;;
2023;SDS011;1016;48.770;9.154;2022-07-25T00:09:11;22.90;;;12.87;;
2023;SDS011;1016;48.770;9.154;2022-07-25T00:11:37;20.37;;;11.40;;
2023;SDS011;1016;48.770;9.154;2022-07-25T00:14:03;20.60;;;11.50;;
2023;SDS011;1016;48.770;9.154;2022-07-25T00:16:29;21.17;;;11.10;;
2023;SDS011;1016;48.770;9.154;2022-07-25T00:18:55;20.17;;;11.10;;
2023;SDS011;1016;48.770;9.154;2022-07-25T00:21:20;21.10;;;11.57;;
2023;SDS011;1016;48.770;9.154;2022-07-25T00:23:46;20.20;;;11.40;;
2023;SDS011;1016;48.770;9.154;2022-07-25T00:26:11;22.00;;;10.83;;
2023;SDS011;1016;48.770;9.154;2022-07-25T00:28:38;21.40;;;11.70;;
2023;SDS011;1016;48.770;9.154;2022-07-25T00:31:04;21.87;;;10.50;;
2023;SDS011;1016;48.770;9.154;2022-07-25T00:33:29;20.43;;;10.90;;
2023;SDS011;1016;48.770;9.154;2022-07-25T00:35:55;21.10;;;10.97;;
2023;SDS011;1016;48.770;9.154;2022-07-25T00:38:21;22.03;;;10.60;;
2023;SDS011;1016;48.770;9.154;2022-07-25T00:40:46;21.60;;;11.48;;
2023;SDS011;1016;48.770;9.154;2022-07-25T00:43:12;20.00;;;10.90;;
2023;SDS011;1016;48.770;9.154;2022-07-25T00:45:37;22.17;;;10.97;;
2023;SDS011;1016;48.770;9.154;2022-07-25T00:48:03;20.90;;;10.93;;
2023;SDS011;1016;48.770;9.154;2022-07-25T00:50:29;20.53;;;11.17;;
2023;SDS011;1016;48.770;9.154;2022-07-25T00:52:55;24.23;;;10.97;;
2023;SDS011;1016;48.770;9.154;2022-07-25T00:55:20;21.07;;;11.00;;
2023;SDS011;1016;48.770;9.154;2022-07-25T00:57:49;20.80;;;11.00;;
2023;SDS011;1016;48.770;9.154;2022-07-25T01:00:14;20.53;;;10.80;;
2023;SDS011;1016;48.770;9.154;2022-07-25T01:02:41;22.23;;;11.20;;
2023;SDS011;1016;48.770;9.154;2022-07-25T01:05:08;22.23;;;11.93;;
2023;SDS011;1016;48.770;9.154;2022-07-25T01:07:34;22.73;;;10.60;;
2023;SDS011;1016;48.770;9.154;2022-07-25T01:10:02;20.00;;;10.50;;
2023;SDS011;1016;48.770;9.154;2022-07-25T01:12:28;19.33;;;10.00;;
2023;SDS011;1016;48.770;9.154;2022-07-25T01:14:54;21.53;;;10.67;;
2023;SDS011;1016;48.770;9.154;2022-07-25T01:17:21;20.70;;;10.37;;
2023;SDS011;1016;48.770;9.154;2022-07-25T01:19:46;20.93;;;11.33;;
2023;SDS011;1016;48.770;9.154;2022-07-25T01:22:12;23.33;;;10.43;;
2023;SDS011;1016;48.770;9.154;2022-07-25T01:24:38;21.23;;;10.47;;
2023;SDS011;1016;48.770;9.154;2022-07-25T01:27:03;19.60;;;10.43;;
2023;SDS011;1016;48.770;9.154;2022-07-25T01:29:29;21.20;;;10.90;;
2023;SDS011;1016;48.770;9.154;2022-07-25T01:31:55;20.40;;;9.90;;
2023;SDS011;1016;48.770;9.154;2022-07-25T01:34:20;21.63;;;9.93;;
2023;SDS011;1016;48.770;9.154;2022-07-25T01:36:46;20.27;;;10.33;;
2023;SDS011;1016;48.770;9.154;2022-07-25T01:39:11;21.97;;;10.97;;
2023;SDS011;1016;48.770;9.154;2022-07-25T01:41:37;24.80;;;12.30;;
2023;SDS011;1016;48.770;9.154;2022-07-25T01:44:02;24.20;;;11.83;;
2023;SDS011;1016;48.770;9.154;2022-07-25T01:46:28;22.50;;;11.67;;
2023;SDS011;1016;48.770;9.154;2022-07-25T01:48:54;22.33;;;11.70;;
2023;SDS011;1016;48.770;9.154;2022-07-25T01:51:19;23.93;;;12.10;;
2023;SDS011;1016;48.770;9.154;2022-07-25T01:53:45;23.63;;;11.17;;
2023;SDS011;1016;48.770;9.154;2022-07-25T01:56:11;23.83;;;11.13;;
2023;SDS011;1016;48.770;9.154;2022-07-25T01:58:37;24.70;;;12.13;;
2023;SDS011;1016;48.770;9.154;2022-07-25T02:01:02;23.70;;;11.40;;
2023;SDS011;1016;48.770;9.154;2022-07-25T02:03:28;23.67;;;10.50;;
2023;SDS011;1016;48.770;9.154;2022-07-25T02:05:54;19.77;;;10.30;;
2023;SDS011;1016;48.770;9.154;2022-07-25T02:08:20;22.37;;;11.57;;
2023;SDS011;1016;48.770;9.154;2022-07-25T02:10:46;21.40;;;10.83;;
2023;SDS011;1016;48.770;9.154;2022-07-25T02:13:11;22.27;;;10.23;;
2023;SDS011;1016;48.770;9.154;2022-07-25T02:15:37;21.87;;;11.10;;
2023;SDS011;1016;48.770;9.154;2022-07-25T02:18:03;21.60;;;10.40;;
2023;SDS011;1016;48.770;9.154;2022-07-25T02:20:29;20.37;;;10.23;;
2023;SDS011;1016;48.770;9.154;2022-07-25T02:22:54;19.73;;;9.17;;
2023;SDS011;1016;48.770;9.154;2022-07-25T02:25:20;21.60;;;9.57;;
2023;SDS011;1016;48.770;9.154;2022-07-25T02:27:45;21.13;;;10.17;;
2023;SDS011;1016;48.770;9.154;2022-07-25T02:30:11;20.20;;;10.00;;
2023;SDS011;1016;48.770;9.154;2022-07-25T02:32:37;19.70;;;9.80;;
2023;SDS011;1016;48.770;9.154;2022-07-25T02:35:03;19.30;;;9.70;;
2023;SDS011;1016;48.770;9.154;2022-07-25T02:37:30;20.40;;;9.80;;
2023;SDS011;1016;48.770;9.154;2022-07-25T02:39:56;20.83;;;9.37;;
2023;SDS011;1016;48.770;9.154;2022-07-25T02:42:21;19.70;;;9.67;;
2023;SDS011;1016;48.770;9.154;2022-07-25T02:44:46;19.63;;;9.27;;
2023;SDS011;1016;48.770;9.154;2022-07-25T02:47:12;19.40;;;9.60;;
2023;SDS011;1016;48.770;9.154;2022-07-25T02:49:37;21.03;;;9.50;;
2023;SDS011;1016;48.770;9.154;2022-07-25T02:52:03;20.70;;;9.57;;
2023;SDS011;1016;48.770;9.154;2022-07-25T02:54:29;21.07;;;9.60;;
2023;SDS011;1016;48.770;9.154;2022-07-25T02:56:54;20.30;;;9.57;;
2023;SDS011;1016;48.770;9.154;2022-07-25T02:59:20;19.93;;;9.50;;
2023;SDS011;1016;48.770;9.154;2022-07-25T03:01:45;21.70;;;9.53;;
2023;SDS011;1016;48.770;9.154;2022-07-25T03:04:11;19.47;;;9.60;;
2023;SDS011;1016;48.770;9.154;2022-07-25T03:06:36;19.37;;;9.23;;
2023;SDS011;1016;48.770;9.154;2022-07-25T03:09:02;19.50;;;9.70;;
2023;SDS011;1016;48.770;9.154;2022-07-25T03:11:28;20.47;;;10.10;;
2023;SDS011;1016;48.770;9.154;2022-07-25T03:13:54;20.50;;;9.33;;
2023;SDS011;1016;48.770;9.154;2022-07-25T03:16:19;21.17;;;9.37;;
2023;SDS011;1016;48.770;9.154;2022-07-25T03:18:45;18.63;;;8.77;;
2023;SDS011;1016;48.770;9.154;2022-07-25T03:21:10;21.53;;;9.90;;
2023;SDS011;1016;48.770;9.154;2022-07-25T03:23:36;19.57;;;9.27;;
2023;SDS011;1016;48.770;9.154;2022-07-25T03:26:02;20.00;;;9.70;;
2023;SDS011;1016;48.770;9.154;2022-07-25T03:28:28;20.00;;;9.13;;
2023;SDS011;1016;48.770;9.154;2022-07-25T03:30:54;19.90;;;9.80;;
2023;SDS011;1016;48.770;9.154;2022-07-25T03:33:19;21.43;;;9.93;;
2023;SDS011;1016;48.770;9.154;2022-07-25T03:35:45;19.50;;;9.70;;
2023;SDS011;1016;48.770;9.154;2022-07-25T03:38:11;20.20;;;9.70;;
2023;SDS011;1016;48.770;9.154;2022-07-25T03:40:36;19.27;;;9.20;;
2023;SDS011;1016;48.770;9.154;2022-07-25T03:43:02;20.50;;;9.70;;
2023;SDS011;1016;48.770;9.154;2022-07-25T03:45:27;21.03;;;9.83;;
2023;SDS011;1016;48.770;9.154;2022-07-25T03:47:53;19.33;;;9.80;;
2023;SDS011;1016;48.770;9.154;2022-07-25T03:50:18;20.00;;;9.77;;
2023;SDS011;1016;48.770;9.154;2022-07-25T03:52:44;21.40;;;9.90;;
2023;SDS011;1016;48.770;9.154;2022-07-25T03:55:10;20.27;;;9.30;;
2023;SDS011;1016;48.770;9.154;2022-07-25T03:57:36;23.57;;;10.57;;
2023;SDS011;1016;48.770;9.154;2022-07-25T04:00:03;20.27;;;9.90;;
2023;SDS011;1016;48.770;9.154;2022-07-25T04:02:30;20.57;;;10.57;;
2023;SDS011;1016;48.770;9.154;2022-07-25T04:04:55;20.77;;;10.10;;
2023;SDS011;1016;48.770;9.154;2022-07-25T04:07:22;21.17;;;10.43;;
2023;SDS011;1016;48.770;9.154;2022-07-25T04:09:47;20.37;;;9.90;;
2023;SDS011;1016;48.770;9.154;2022-07-25T04:12:13;21.33;;;11.03;;
2023;SDS011;1016;48.770;9.154;2022-07-25T04:14:38;20.33;;;9.70;;
2023;SDS011;1016;48.770;9.154;2022-07-25T04:17:04;21.63;;;10.17;;
2023;SDS011;1016;48.770;9.154;2022-07-25T04:19:30;20.67;;;10.27;;
2023;SDS011;1016;48.770;9.154;2022-07-25T04:21:55;23.00;;;10.73;;
2023;SDS011;1016;48.770;9.154;2022-07-25T04:24:21;21.13;;;10.40;;
2023;SDS011;1016;48.770;9.154;2022-07-25T04:26:47;23.73;;;10.63;;
2023;SDS011;1016;48.770;9.154;2022-07-25T04:29:12;20.63;;;9.97;;
2023;SDS011;1016;48.770;9.154;2022-07-25T04:31:37;21.87;;;11.10;;
2023;SDS011;1016;48.770;9.154;2022-07-25T04:34:03;23.40;;;11.10;;
2023;SDS011;1016;48.770;9.154;2022-07-25T04:36:29;21.27;;;10.83;;
2023;SDS011;1016;48.770;9.154;2022-07-25T04:38:54;21.20;;;10.57;;
2023;SDS011;1016;48.770;9.154;2022-07-25T04:41:20;22.90;;;11.17;;
2023;SDS011;1016;48.770;9.154;2022-07-25T04:43:46;21.30;;;10.47;;
2023;SDS011;1016;48.770;9.154;2022-07-25T04:46:11;21.20;;;10.93;;
2023;SDS011;1016;48.770;9.154;2022-07-25T04:48:37;22.40;;;10.93;;
2023;SDS011;1016;48.770;9.154;2022-07-25T04:51:02;23.43;;;11.17;;
2023;SDS011;1016;48.770;9.154;2022-07-25T04:53:28;21.90;;;10.00;;
2023;SDS011;1016;48.770;9.154;2022-07-25T04:55:53;20.40;;;10.47;;
2023;SDS011;1016;48.770;9.154;2022-07-25T04:58:19;21.60;;;10.60;;
2023;SDS011;1016;48.770;9.154;2022-07-25T05:00:45;20.45;;;10.23;;
2023;SDS011;1016;48.770;9.154;2022-07-25T05:03:10;19.80;;;10.10;;
2023;SDS011;1016;48.770;9.154;2022-07-25T05:05:36;19.70;;;10.60;;
2023;SDS011;1016;48.770;9.154;2022-07-25T05:08:02;20.03;;;10.47;;
2023;SDS011;1016;48.770;9.154;2022-07-25T05:10:28;25.53;;;10.30;;
2023;SDS011;1016;48.770;9.154;2022-07-25T05:12:54;21.70;;;10.63;;
2023;SDS011;1016;48.770;9.154;2022-07-25T05:15:20;20.20;;;10.80;;
2023;SDS011;1016;48.770;9.154;2022-07-25T05:17:46;21.83;;;10.30;;
2023;SDS011;1016;48.770;9.154;2022-07-25T05:20:12;19.92;;;10.02;;
2023;SDS011;1016;48.770;9.154;2022-07-25T05:22:38;22.60;;;10.20;;
2023;SDS011;1016;48.770;9.154;2022-07-25T05:25:06;21.07;;;10.40;;
2023;SDS011;1016;48.770;9.154;2022-07-25T05:27:34;20.00;;;10.50;;
2023;SDS011;1016;48.770;9.154;2022-07-25T05:30:00;22.10;;;10.37;;
2023;SDS011;1016;48.770;9.154;2022-07-25T05:32:25;23.67;;;11.50;;
2023;SDS011;1016;48.770;9.154;2022-07-25T05:34:51;20.13;;;10.60;;
2023;SDS011;1016;48.770;9.154;2022-07-25T05:37:16;21.17;;;10.37;;
2023;SDS011;1016;48.770;9.154;2022-07-25T05:39:42;20.23;;;10.10;;
2023;SDS011;1016;48.770;9.154;2022-07-25T05:42:08;20.27;;;10.50;;
2023;SDS011;1016;48.770;9.154;2022-07-25T05:44:33;20.20;;;10.30;;
2023;SDS011;1016;48.770;9.154;2022-07-25T05:46:59;20.73;;;10.70;;
2023;SDS011;1016;48.770;9.154;2022-07-25T05:49:24;21.17;;;10.63;;
2023;SDS011;1016;48.770;9.154;2022-07-25T05:51:50;21.17;;;10.70;;
2023;SDS011;1016;48.770;9.154;2022-07-25T05:54:16;22.23;;;10.90;;
2023;SDS011;1016;48.770;9.154;2022-07-25T05:56:41;20.70;;;10.97;;
2023;SDS011;1016;48.770;9.154;2022-07-25T05:59:07;22.37;;;11.00;;
2023;SDS011;1016;48.770;9.154;2022-07-25T06:01:32;21.47;;;10.83;;
2023;SDS011;1016;48.770;9.154;2022-07-25T06:03:58;21.57;;;11.20;;
2023;SDS011;1016;48.770;9.154;2022-07-25T06:06:23;21.13;;;10.70;;
2023;SDS011;1016;48.770;9.154;2022-07-25T06:08:49;20.83;;;10.27;;
2023;SDS011;1016;48.770;9.154;2022-07-25T06:11:15;21.97;;;11.03;;
2023;SDS011;1016;48.770;9.154;2022-07-25T06:13:40;20.40;;;10.67;;
2023;SDS011;1016;48.770;9.154;2022-07-25T06:16:06;21.70;;;10.17;;
2023;SDS011;1016;48.770;9.154;2022-07-25T06:18:31;21.63;;;10.67;;
2023;SDS011;1016;48.770;9.154;2022-07-25T06:20:57;22.57;;;12.13;;
2023;SDS011;1016;48.770;9.154;2022-07-25T06:23:22;21.60;;;10.83;;
2023;SDS011;1016;48.770;9.154;2022-07-25T06:25:48;20.57;;;10.70;;
2023;SDS011;1016;48.770;9.154;2022-07-25T06:28:13;23.17;;;11.30;;
2023;SDS011;1016;48.770;9.154;2022-07-25T06:30:40;22.50;;;10.70;;
2023;SDS011;1016;48.770;9.154;2022-07-25T06:33:06;21.43;;;10.33;;
2023;SDS011;1016;48.770;9.154;2022-07-25T06:35:31;20.63;;;10.57;;
2023;SDS011;1016;48.770;9.154;2022-07-25T06:37:57;20.87;;;9.93;;
2023;SDS011;1016;48.770;9.154;2022-07-25T06:40:23;27.33;;;11.77;;
2023;SDS011;1016;48.770;9.154;2022-07-25T06:42:48;29.03;;;11.80;;
2023;SDS011;1016;48.770;9.154;2022-07-25T06:45:14;24.53;;;11.43;;
2023;SDS011;1016;48.770;9.154;2022-07-25T06:47:40;22.40;;;10.40;;
2023;SDS011;1016;48.770;9.154;2022-07-25T06:50:08;20.50;;;9.80;;
2023;SDS011;1016;48.770;9.154;2022-07-25T06:52:35;20.73;;;10.50;;
2023;SDS011;1016;48.770;9.154;2022-07-25T06:55:01;23.90;;;11.00;;
2023;SDS011;1016;48.770;9.154;2022-07-25T06:57:28;22.60;;;9.93;;
2023;SDS011;1016;48.770;9.154;2022-07-25T06:59:54;18.80;;;9.03;;
2023;SDS011;1016;48.770;9.154;2022-07-25T07:02:19;22.90;;;10.50;;
2023;SDS011;1016;48.770;9.154;2022-07-25T07:04:45;21.67;;;10.33;;
2023;SDS011;1016;48.770;9.154;2022-07-25T07:07:11;21.03;;;9.50;;
2023;SDS011;1016;48.770;9.154;2022-07-25T07:09:36;21.63;;;10.23;;
2023;SDS011;1016;48.770;9.154;2022-07-25T07:12:02;23.33;;;10.23;;
2023;SDS011;1016;48.770;9.154;2022-07-25T07:14:28;21.87;;;11.93;;
2023;SDS011;1016;48.770;9.154;2022-07-25T07:16:53;21.27;;;10.40;;
2023;SDS011;1016;48.770;9.154;2022-07-25T07:19:19;20.97;;;9.93;;
2023;SDS011;1016;48.770;9.154;2022-07-25T07:21:45;24.90;;;10.50;;
2023;SDS011;1016;48.770;9.154;2022-07-25T07:24:11;21.83;;;10.53;;
2023;SDS011;1016;48.770;9.154;2022-07-25T07:26:36;20.37;;;10.57;;
2023;SDS011;1016;48.770;9.154;2022-07-25T07:29:02;21.73;;;10.23;;
2023;SDS011;1016;48.770;9.154;2022-07-25T07:31:28;22.00;;;10.45;;
2023;SDS011;1016;48.770;9.154;2022-07-25T07:33:54;20.58;;;10.50;;
2023;SDS011;1016;48.770;9.154;2022-07-25T07:36:20;19.43;;;10.63;;
2023;SDS011;1016;48.770;9.154;2022-07-25T07:38:46;22.93;;;9.97;;
2023;SDS011;1016;48.770;9.154;2022-07-25T07:41:12;20.37;;;9.90;;
2023;SDS011;1016;48.770;9.154;2022-07-25T07:43:38;21.17;;;10.43;;
2023;SDS011;1016;48.770;9.154;2022-07-25T07:46:05;23.97;;;11.23;;
2023;SDS011;1016;48.770;9.154;2022-07-25T07:48:30;21.10;;;11.10;;
2023;SDS011;1016;48.770;9.154;2022-07-25T07:50:57;20.80;;;11.50;;
2023;SDS011;1016;48.770;9.154;2022-07-25T07:53:23;22.10;;;9.97;;
2023;SDS011;1016;48.770;9.154;2022-07-25T07:56:08;21.80;;;10.50;;
2023;SDS011;1016;48.770;9.154;2022-07-25T07:58:33;19.80;;;10.70;;
2023;SDS011;1016;48.770;9.154;2022-07-25T08:00:59;19.20;;;10.47;;
2023;SDS011;1016;48.770;9.154;2022-07-25T08:03:25;20.90;;;10.40;;
2023;SDS011;1016;48.770;9.154;2022-07-25T08:05:50;20.00;;;10.83;;
2023;SDS011;1016;48.770;9.154;2022-07-25T08:08:16;20.23;;;10.80;;
2023;SDS011;1016;48.770;9.154;2022-07-25T08:10:43;20.13;;;10.33;;
2023;SDS011;1016;48.770;9.154;2022-07-25T08:13:10;19.10;;;10.23;;
2023;SDS011;1016;48.770;9.154;2022-07-25T08:15:51;19.70;;;10.50;;
2023;SDS011;1016;48.770;9.154;2022-07-25T08:18:18;20.73;;;10.13;;
2023;SDS011;1016;48.770;9.154;2022-07-25T08:20:45;21.03;;;10.00;;
2023;SDS011;1016;48.770;9.154;2022-07-25T08:23:11;19.92;;;10.38;;
2023;SDS011;1016;48.770;9.154;2022-07-25T08:25:37;19.03;;;9.60;;
2023;SDS011;1016;48.770;9.154;2022-07-25T08:28:03;19.30;;;10.00;;
2023;SDS011;1016;48.770;9.154;2022-07-25T08:30:30;20.50;;;10.83;;
2023;SDS011;1016;48.770;9.154;2022-07-25T08:32:59;19.70;;;10.40;;
2023;SDS011;1016;48.770;9.154;2022-07-25T08:35:27;19.43;;;9.07;;
2023;SDS011;1016;48.770;9.154;2022-07-25T08:37:54;20.20;;;8.93;;
2023;SDS011;1016;48.770;9.154;2022-07-25T08:40:20;17.87;;;8.80;;
2023;SDS011;1016;48.770;9.154;2022-07-25T08:42:47;18.30;;;9.37;;
2023;SDS011;1016;48.770;9.154;2022-07-25T08:45:14;19.57;;;9.60;;
2023;SDS011;1016;48.770;9.154;2022-07-25T08:47:42;19.60;;;10.00;;
2023;SDS011;1016;48.770;9.154;2022-07-25T08:50:09;20.17;;;9.90;;
2023;SDS011;1016;48.770;9.154;2022-07-25T08:52:37;18.53;;;8.93;;
2023;SDS011;1016;48.770;9.154;2022-07-25T08:55:04;21.07;;;9.17;;
2023;SDS011;1016;48.770;9.154;2022-07-25T08:57:32;18.53;;;8.97;;
2023;SDS011;1016;48.770;9.154;2022-07-25T08:59:59;21.90;;;9.18;;
2023;SDS011;1016;48.770;9.154;2022-07-25T09:02:26;19.60;;;9.20;;
2023;SDS011;1016;48.770;9.154;2022-07-25T09:04:52;19.33;;;9.40;;
2023;SDS011;1016;48.770;9.154;2022-07-25T09:07:28;19.58;;;9.75;;
2023;SDS011;1016;48.770;9.154;2022-07-25T09:09:54;18.70;;;9.10;;
2023;SDS011;1016;48.770;9.154;2022-07-25T09:12:24;18.40;;;8.20;;
2023;SDS011;1016;48.770;9.154;2022-07-25T09:14:51;19.40;;;9.30;;
2023;SDS011;1016;48.770;9.154;2022-07-25T09:17:16;20.50;;;9.57;;
2023;SDS011;1016;48.770;9.154;2022-07-25T09:19:50;20.53;;;9.53;;
2023;SDS011;1016;48.770;9.154;2022-07-25T09:22:17;18.93;;;9.17;;
2023;SDS011;1016;48.770;9.154;2022-07-25T09:24:43;23.53;;;9.70;;
2023;SDS011;1016;48.770;9.154;2022-07-25T09:27:09;18.43;;;9.30;;
2023;SDS011;1016;48.770;9.154;2022-07-25T09:29:38;18.80;;;8.97;;
2023;SDS011;1016;48.770;9.154;2022-07-25T09:32:21;21.63;;;9.20;;
2023;SDS011;1016;48.770;9.154;2022-07-25T09:34:48;19.77;;;10.10;;
2023;SDS011;1016;48.770;9.154;2022-07-25T09:37:16;19.07;;;9.63;;
2023;SDS011;1016;48.770;9.154;2022-07-25T09:39:47;20.17;;;9.30;;
2023;SDS011;1016;48.770;9.154;2022-07-25T09:45:04;17.67;;;9.07;;
2023;SDS011;1016;48.770;9.154;2022-07-25T09:47:47;18.93;;;9.73;;
2023;SDS011;1016;48.770;9.154;2022-07-25T09:50:15;19.87;;;10.07;;
2023;SDS011;1016;48.770;9.154;2022-07-25T09:52:41;19.00;;;9.20;;
2023;SDS011;1016;48.770;9.154;2022-07-25T09:55:08;19.70;;;9.80;;
2023;SDS011;1016;48.770;9.154;2022-07-25T09:57:35;19.17;;;9.70;;
2023;SDS011;1016;48.770;9.154;2022-07-25T10:00:02;17.60;;;8.70;;
2023;SDS011;1016;48.770;9.154;2022-07-25T10:08:03;21.23;;;9.87;;
2023;SDS011;1016;48.770;9.154;2022-07-25T10:10:35;20.00;;;8.53;;
2023;SDS011;1016;48.770;9.154;2022-07-25T10:13:05;20.50;;;10.13;;
2023;SDS011;1016;48.770;9.154;2022-07-25T10:15:48;19.20;;;9.60;;
2023;SDS011;1016;48.770;9.154;2022-07-25T10:18:16;20.20;;;9.13;;
2023;SDS011;1016;48.770;9.154;2022-07-25T10:20:47;19.10;;;9.30;;
2023;SDS011;1016;48.770;9.154;2022-07-25T10:25:44;18.33;;;9.30;;
2023;SDS011;1016;48.770;9.154;2022-07-25T10:28:10;19.40;;;9.43;;
2023;SDS011;1016;48.770;9.154;2022-07-25T10:30:40;19.00;;;9.20;;
2023;SDS011;1016;48.770;9.154;2022-07-25T10:33:13;19.10;;;9.00;;
2023;SDS011;1016;48.770;9.154;2022-07-25T10:35:42;18.07;;;8.47;;
2023;SDS011;1016;48.770;9.154;2022-07-25T10:38:09;20.60;;;9.37;;
2023;SDS011;1016;48.770;9.154;2022-07-25T10:40:44;19.97;;;8.80;;
2023;SDS011;1016;48.770;9.154;2022-07-25T10:43:12;18.50;;;8.70;;
2023;SDS011;1016;48.770;9.154;2022-07-25T10:45:47;18.17;;;8.40;;
2023;SDS011;1016;48.770;9.154;2022-07-25T10:48:29;20.70;;;8.90;;
2023;SDS011;1016;48.770;9.154;2022-07-25T10:53:44;21.30;;;9.07;;
2023;SDS011;1016;48.770;9.154;2022-07-25T10:56:13;19.77;;;8.40;;
2023;SDS011;1016;48.770;9.154;2022-07-25T10:58:45;18.00;;;8.00;;
2023;SDS011;1016;48.770;9.154;2022-07-25T11:01:13;18.00;;;7.83;;
2023;SDS011;1016;48.770;9.154;2022-07-25T11:03:43;18.30;;;8.40;;
2023;SDS011;1016;48.770;9.154;2022-07-25T11:06:10;19.17;;;8.70;;
2023;SDS011;1016;48.770;9.154;2022-07-25T11:08:37;18.53;;;8.83;;
2023;SDS011;1016;48.770;9.154;2022-07-25T11:11:03;18.93;;;9.63;;
2023;SDS011;1016;48.770;9.154;2022-07-25T11:13:28;17.60;;;8.27;;
2023;SDS011;1016;48.770;9.154;2022-07-25T11:15:57;23.90;;;8.23;;
2023;SDS011;1016;48.770;9.154;2022-07-25T11:18:30;18.20;;;8.50;;
2023;SDS011;1016;48.770;9.154;2022-07-25T11:21:01;18.40;;;8.37;;
2023;SDS011;1016;48.770;9.154;2022-07-25T11:23:28;20.07;;;10.67;;
2023;SDS011;1016;48.770;9.154;2022-07-25T11:26:03;18.30;;;8.20;;
2023;SDS011;1016;48.770;9.154;2022-07-25T11:28:37;19.40;;;8.67;;
2023;SDS011;1016;48.770;9.154;2022-07-25T11:31:05;20.00;;;8.70;;
2023;SDS011;1016;48.770;9.154;2022-07-25T11:33:31;18.07;;;7.70;;
2023;SDS011;1016;48.770;9.154;2022-07-25T11:35:57;19.93;;;7.87;;
2023;SDS011;1016;48.770;9.154;2022-07-25T11:38:23;18.93;;;7.67;;
2023;SDS011;1016;48.770;9.154;2022-07-25T11:40:50;17.50;;;7.60;;
2023;SDS011;1016;48.770;9.154;2022-07-25T11:43:22;16.60;;;7.20;;
2023;SDS011;1016;48.770;9.154;2022-07-25T11:46:03;16.90;;;6.90;;
2023;SDS011;1016;48.770;9.154;2022-07-25T11:48:34;16.90;;;7.20;;
2023;SDS011;1016;48.770;9.154;2022-07-25T11:51:15;24.30;;;14.10;;
2023;SDS011;1016;48.770;9.154;2022-07-25T11:53:46;17.07;;;7.23;;
2023;SDS011;1016;48.770;9.154;2022-07-25T11:56:22;17.10;;;7.10;;
2023;SDS011;1016;48.770;9.154;2022-07-25T11:58:55;18.30;;;6.80;;
2023;SDS011;1016;48.770;9.154;2022-07-25T12:01:23;17.97;;;7.10;;
2023;SDS011;1016;48.770;9.154;2022-07-25T12:03:54;20.50;;;6.00;;
2023;SDS011;1016;48.770;9.154;2022-07-25T12:06:20;15.17;;;5.20;;
2023;SDS011;1016;48.770;9.154;2022-07-25T12:08:53;15.07;;;4.70;;
2023;SDS011;1016;48.770;9.154;2022-07-25T12:11:20;16.10;;;5.20;;
2023;SDS011;1016;48.770;9.154;2022-07-25T12:13:47;16.97;;;5.07;;
2023;SDS011;1016;48.770;9.154;2022-07-25T12:16:13;16.30;;;5.00;;
2023;SDS011;1016;48.770;9.154;2022-07-25T12:18:40;15.80;;;5.10;;
2023;SDS011;1016;48.770;9.154;2022-07-25T12:21:05;15.93;;;5.13;;
2023;SDS011;1016;48.770;9.154;2022-07-25T12:23:32;17.87;;;5.77;;
2023;SDS011;1016;48.770;9.154;2022-07-25T12:25:58;16.00;;;5.87;;
2023;SDS011;1016;48.770;9.154;2022-07-25T12:28:23;19.00;;;6.80;;
2023;SDS011;1016;48.770;9.154;2022-07-25T12:30:49;18.93;;;6.40;;
2023;SDS011;1016;48.770;9.154;2022-07-25T12:33:15;16.17;;;6.43;;
2023;SDS011;1016;48.770;9.154;2022-07-25T12:35:41;18.83;;;6.70;;
2023;SDS011;1016;48.770;9.154;2022-07-25T12:38:08;17.30;;;6.97;;
2023;SDS011;1016;48.770;9.154;2022-07-25T12:40:35;18.10;;;6.70;;
2023;SDS011;1016;48.770;9.154;2022-07-25T12:43:01;17.87;;;6.83;;
2023;SDS011;1016;48.770;9.154;2022-07-25T12:45:27;17.57;;;7.10;;
2023;SDS011;1016;48.770;9.154;2022-07-25T12:47:54;17.10;;;6.80;;
2023;SDS011;1016;48.770;9.154;2022-07-25T12:50:20;20.23;;;6.80;;
2023;SDS011;1016;48.770;9.154;2022-07-25T12:52:46;17.10;;;7.13;;
2023;SDS011;1016;48.770;9.154;2022-07-25T12:55:14;18.20;;;7.27;;
2023;SDS011;1016;48.770;9.154;2022-07-25T12:57:42;16.70;;;7.10;;
2023;SDS011;1016;48.770;9.154;2022-07-25T13:00:09;17.47;;;6.80;;
2023;SDS011;1016;48.770;9.154;2022-07-25T13:02:37;17.17;;;7.00;;
2023;SDS011;1016;48.770;9.154;2022-07-25T13:05:03;17.20;;;7.00;;
2023;SDS011;1016;48.770;9.154;2022-07-25T13:07:30;18.43;;;7.17;;
2023;SDS011;1016;48.770;9.154;2022-07-25T13:09:56;21.40;;;7.60;;
2023;SDS011;1016;48.770;9.154;2022-07-25T13:12:22;17.13;;;7.00;;
2023;SDS011;1016;48.770;9.154;2022-07-25T13:14:48;17.97;;;7.43;;
2023;SDS011;1016;48.770;9.154;2022-07-25T13:17:14;16.60;;;6.67;;
2023;SDS011;1016;48.770;9.154;2022-07-25T13:19:39;17.17;;;6.30;;
2023;SDS011;1016;48.770;9.154;2022-07-25T13:22:05;17.00;;;6.70;;
2023;SDS011;1016;48.770;9.154;2022-07-25T13:24:31;17.07;;;6.13;;
2023;SDS011;1016;48.770;9.154;2022-07-25T13:26:58;16.53;;;6.20;;
2023;SDS011;1016;48.770;9.154;2022-07-25T13:29:26;16.13;;;6.17;;
2023;SDS011;1016;48.770;9.154;2022-07-25T13:31:52;20.80;;;6.37;;
2023;SDS011;1016;48.770;9.154;2022-07-25T13:34:18;15.67;;;5.57;;
2023;SDS011;1016;48.770;9.154;2022-07-25T13:36:43;16.90;;;5.90;;
2023;SDS011;1016;48.770;9.154;2022-07-25T13:39:10;18.60;;;5.90;;
2023;SDS011;1016;48.770;9.154;2022-07-25T13:41:36;16.53;;;6.53;;
2023;SDS011;1016;48.770;9.154;2022-07-25T13:44:01;17.23;;;6.67;;
2023;SDS011;1016;48.770;9.154;2022-07-25T13:46:27;16.57;;;6.70;;
2023;SDS011;1016;48.770;9.154;2022-07-25T13:48:53;17.10;;;6.50;;
2023;SDS011;1016;48.770;9.154;2022-07-25T13:51:19;23.10;;;7.70;;
2023;SDS011;1016;48.770;9.154;2022-07-25T13:53:44;20.40;;;6.93;;
2023;SDS011;1016;48.770;9.154;2022-07-25T13:56:10;16.97;;;6.83;;
2023;SDS011;1016;48.770;9.154;2022-07-25T13:58:37;16.30;;;6.97;;
2023;SDS011;1016;48.770;9.154;2022-07-25T14:01:03;16.77;;;6.70;;
2023;SDS011;1016;48.770;9.154;2022-07-25T14:03:28;19.93;;;6.90;;
2023;SDS011;1016;48.770;9.154;2022-07-25T14:05:54;18.27;;;7.10;;
2023;SDS011;1016;48.770;9.154;2022-07-25T14:08:19;16.97;;;6.53;;
2023;SDS011;1016;48.770;9.154;2022-07-25T14:10:45;17.60;;;7.20;;
2023;SDS011;1016;48.770;9.154;2022-07-25T14:13:11;18.40;;;7.37;;
2023;SDS011;1016;48.770;9.154;2022-07-25T14:15:37;18.63;;;7.30;;
2023;SDS011;1016;48.770;9.154;2022-07-25T14:18:03;16.83;;;6.97;;
2023;SDS011;1016;48.770;9.154;2022-07-25T14:20:28;17.50;;;7.07;;
2023;SDS011;1016;48.770;9.154;2022-07-25T14:22:54;18.43;;;7.50;;
2023;SDS011;1016;48.770;9.154;2022-07-25T14:25:19;18.77;;;7.83;;
2023;SDS011;1016;48.770;9.154;2022-07-25T14:27:45;19.83;;;7.70;;
2023;SDS011;1016;48.770;9.154;2022-07-25T14:30:11;19.17;;;8.00;;
2023;SDS011;1016;48.770;9.154;2022-07-25T14:32:37;18.10;;;7.40;;
2023;SDS011;1016;48.770;9.154;2022-07-25T14:35:03;17.80;;;7.33;;
2023;SDS011;1016;48.770;9.154;2022-07-25T14:37:30;17.10;;;7.23;;
2023;SDS011;1016;48.770;9.154;2022-07-25T14:39:59;17.60;;;7.40;;
2023;SDS011;1016;48.770;9.154;2022-07-25T14:42:26;17.63;;;7.80;;
2023;SDS011;1016;48.770;9.154;2022-07-25T14:44:52;19.80;;;7.63;;
2023;SDS011;1016;48.770;9.154;2022-07-25T14:47:18;19.13;;;7.97;;
2023;SDS011;1016;48.770;9.154;2022-07-25T14:49:44;17.90;;;7.70;;
2023;SDS011;1016;48.770;9.154;2022-07-25T14:52:10;17.30;;;7.47;;
2023;SDS011;1016;48.770;9.154;2022-07-25T14:54:39;18.90;;;7.27;;
2023;SDS011;1016;48.770;9.154;2022-07-25T14:57:05;19.63;;;8.10;;
2023;SDS011;1016;48.770;9.154;2022-07-25T14:59:32;18.70;;;8.00;;
2023;SDS011;1016;48.770;9.154;2022-07-25T15:01:57;17.57;;;7.63;;
2023;SDS011;1016;48.770;9.154;2022-07-25T15:04:23;18.70;;;8.07;;
2023;SDS011;1016;48.770;9.154;2022-07-25T15:06:49;18.40;;;8.10;;